sensor_id;sensor_type;location;lat;lon;timestamp;pressure;altitude;pressure_sealevel;temperature;humidity
22025;BME280;11176;51.448;6.650;2023-05-31T00:02:20;36481.16;;;-141.29;76.67
22025;BME280;11176;51.448;6.650;2023-05-31T00:04:47;36461.25;;;-141.29;76.84
22025;BME280;11176;51.448;6.650;2023-05-31T00:07:14;36495.13;;;-141.29;77.10
22025;BME280;11176;51.448;6.650;2023-05-31T00:09:40;36477.19;;;-141.29;77.14
22025;BME280;11176;51.448;6.650;2023-05-31T00:12:07;36473.19;;;-141.29;77.51
22025;BME280;11176;51.448;6.650;2023-05-31T00:14:34;36441.31;;;-141.29;77.80
22025;BME280;11176;51.448;6.650;2023-05-31T00:17:00;36473.19;;;-141.29;77.93
22025;BME280;11176;51.448;6.650;2023-05-31T00:19:30;36469.22;;;-141.29;77.84
22025;BME280;11176;51.448;6.650;2023-05-31T00:21:56;36461.25;;;-141.29;78.05
22025;BME280;11176;51.448;6.650;2023-05-31T00:24:23;36441.31;;;-141.29;77.94
22025;BME280;11176;51.448;6.650;2023-05-31T00:26:49;36475.19;;;-141.29;77.93
22025;BME280;11176;51.448;6.650;2023-05-31T00:29:16;36459.25;;;-141.29;77.75
22025;BME280;11176;51.448;6.650;2023-05-31T00:31:42;36481.16;;;-141.29;78.15
22025;BME280;11176;51.448;6.650;2023-05-31T00:34:09;36471.22;;;-141.29;77.86
22025;BME280;11176;51.448;6.650;2023-05-31T00:36:37;36457.25;;;-141.29;77.89
22025;BME280;11176;51.448;6.650;2023-05-31T00:39:04;36465.22;;;-141.29;78.17
22025;BME280;11176;51.448;6.650;2023-05-31T00:41:31;36465.22;;;-141.29;78.41
22025;BME280;11176;51.448;6.650;2023-05-31T00:43:57;36465.22;;;-141.29;78.54
22025;BME280;11176;51.448;6.650;2023-05-31T00:46:34;36489.16;;;-141.29;78.47
22025;BME280;11176;51.448;6.650;2023-05-31T00:49:03;36453.28;;;-141.29;78.81
22025;BME280;11176;51.448;6.650;2023-05-31T00:51:31;36463.22;;;-141.29;78.96
22025;BME280;11176;51.448;6.650;2023-05-31T00:53:59;36475.19;;;-141.29;79.11
22025;BME280;11176;51.448;6.650;2023-05-31T00:56:26;36461.25;;;-141.29;79.31
22025;BME280;11176;51.448;6.650;2023-05-31T00:58:57;36473.19;;;-141.29;79.60
22025;BME280;11176;51.448;6.650;2023-05-31T01:01:26;36461.25;;;-141.29;79.71
22025;BME280;11176;51.448;6.650;2023-05-31T01:03:53;36453.28;;;-141.29;79.72
22025;BME280;11176;51.448;6.650;2023-05-31T01:06:22;36421.38;;;-141.29;80.11
22025;BME280;11176;51.448;6.650;2023-05-31T01:08:51;36465.22;;;-141.29;80.37
22025;BME280;11176;51.448;6.650;2023-05-31T01:14:29;36447.28;;;-141.29;80.91
22025;BME280;11176;51.448;6.650;2023-05-31T01:20:01;36451.28;;;-141.29;81.55
22025;BME280;11176;51.448;6.650;2023-05-31T01:28:00;36455.25;;;-141.29;82.21
22025;BME280;11176;51.448;6.650;2023-05-31T01:30:27;36461.25;;;-141.29;82.40
22025;BME280;11176;51.448;6.650;2023-05-31T01:32:57;36465.22;;;-141.29;82.52
22025;BME280;11176;51.448;6.650;2023-05-31T01:35:27;36467.22;;;-141.29;82.61
22025;BME280;11176;51.448;6.650;2023-05-31T01:37:54;36463.22;;;-141.29;82.80
22025;BME280;11176;51.448;6.650;2023-05-31T01:40:21;36477.19;;;-141.29;82.99
22025;BME280;11176;51.448;6.650;2023-05-31T01:42:48;36475.19;;;-141.29;83.04
22025;BME280;11176;51.448;6.650;2023-05-31T01:45:15;36451.28;;;-141.29;82.88
22025;BME280;11176;51.448;6.650;2023-05-31T01:47:43;36453.28;;;-141.29;83.16
22025;BME280;11176;51.448;6.650;2023-05-31T01:50:13;36475.19;;;-141.29;83.13
22025;BME280;11176;51.448;6.650;2023-05-31T01:52:40;36479.19;;;-141.29;83.29
22025;BME280;11176;51.448;6.650;2023-05-31T01:55:07;36475.19;;;-141.29;83.54
22025;BME280;11176;51.448;6.650;2023-05-31T01:57:37;36451.28;;;-141.29;83.55
22025;BME280;11176;51.448;6.650;2023-05-31T02:00:07;36449.28;;;-141.29;83.65
22025;BME280;11176;51.448;6.650;2023-05-31T02:02:42;36489.16;;;-141.29;83.58
22025;BME280;11176;51.448;6.650;2023-05-31T02:05:10;36469.22;;;-141.29;83.74
22025;BME280;11176;51.448;6.650;2023-05-31T02:07:40;36457.25;;;-141.29;83.85
22025;BME280;11176;51.448;6.650;2023-05-31T02:10:08;36455.25;;;-141.29;84.08
22025;BME280;11176;51.448;6.650;2023-05-31T02:12:37;36477.19;;;-141.29;84.14
22025;BME280;11176;51.448;6.650;2023-05-31T02:15:04;36457.25;;;-141.29;84.16
22025;BME280;11176;51.448;6.650;2023-05-31T02:17:39;36477.19;;;-141.29;83.94
22025;BME280;11176;51.448;6.650;2023-05-31T02:20:11;36481.16;;;-141.29;84.51
22025;BME280;11176;51.448;6.650;2023-05-31T02:22:44;36475.19;;;-141.29;84.73
22025;BME280;11176;51.448;6.650;2023-05-31T02:25:12;36461.25;;;-141.29;84.97
22025;BME280;11176;51.448;6.650;2023-05-31T02:27:40;36437.31;;;-141.29;85.03
22025;BME280;11176;51.448;6.650;2023-05-31T02:30:08;36477.19;;;-141.29;84.96
22025;BME280;11176;51.448;6.650;2023-05-31T02:32:36;36481.16;;;-141.29;84.93
22025;BME280;11176;51.448;6.650;2023-05-31T02:35:04;36461.25;;;-141.29;84.84
22025;BME280;11176;51.448;6.650;2023-05-31T02:37:32;36481.16;;;-141.29;84.65
22025;BME280;11176;51.448;6.650;2023-05-31T02:39:59;36457.25;;;-141.29;84.51
22025;BME280;11176;51.448;6.650;2023-05-31T02:42:25;36473.19;;;-141.29;84.89
22025;BME280;11176;51.448;6.650;2023-05-31T02:44:52;36453.28;;;-141.29;85.14
22025;BME280;11176;51.448;6.650;2023-05-31T02:47:18;36473.19;;;-141.29;85.44
22025;BME280;11176;51.448;6.650;2023-05-31T02:49:45;36469.22;;;-141.29;85.41
22025;BME280;11176;51.448;6.650;2023-05-31T02:52:14;36457.25;;;-141.29;85.27
22025;BME280;11176;51.448;6.650;2023-05-31T02:55:13;36449.28;;;-141.29;85.44
22025;BME280;11176;51.448;6.650;2023-05-31T02:58:05;36479.19;;;-141.29;85.56
22025;BME280;11176;51.448;6.650;2023-05-31T03:00:36;36481.16;;;-141.29;85.48
22025;BME280;11176;51.448;6.650;2023-05-31T03:03:02;36479.19;;;-141.29;85.61
22025;BME280;11176;51.448;6.650;2023-05-31T03:05:55;36475.19;;;-141.29;85.83
22025;BME280;11176;51.448;6.650;2023-05-31T03:08:22;36473.19;;;-141.29;86.26
22025;BME280;11176;51.448;6.650;2023-05-31T03:10:50;36479.19;;;-141.29;86.09
22025;BME280;11176;51.448;6.650;2023-05-31T03:13:17;36487.16;;;-141.29;86.23
22025;BME280;11176;51.448;6.650;2023-05-31T03:15:43;36465.22;;;-141.29;86.26
22025;BME280;11176;51.448;6.650;2023-05-31T03:18:10;36465.22;;;-141.29;86.59
22025;BME280;11176;51.448;6.650;2023-05-31T03:20:40;36489.16;;;-141.29;86.36
22025;BME280;11176;51.448;6.650;2023-05-31T03:23:06;36479.19;;;-141.29;86.74
22025;BME280;11176;51.448;6.650;2023-05-31T03:25:34;36473.19;;;-141.29;87.00
22025;BME280;11176;51.448;6.650;2023-05-31T03:28:00;36475.19;;;-141.29;87.18
22025;BME280;11176;51.448;6.650;2023-05-31T03:30:27;36489.16;;;-141.29;86.90
22025;BME280;11176;51.448;6.650;2023-05-31T03:32:57;36477.19;;;-141.29;87.51
22025;BME280;11176;51.448;6.650;2023-05-31T03:35:24;36497.13;;;-141.29;87.45
22025;BME280;11176;51.448;6.650;2023-05-31T03:37:52;36475.19;;;-141.29;87.54
22025;BME280;11176;51.448;6.650;2023-05-31T03:40:19;36457.25;;;-141.29;87.62
22025;BME280;11176;51.448;6.650;2023-05-31T03:42:47;36477.19;;;-141.29;87.78
22025;BME280;11176;51.448;6.650;2023-05-31T03:45:13;36477.19;;;-141.29;88.09
22025;BME280;11176;51.448;6.650;2023-05-31T03:47:40;36501.09;;;-141.29;88.19
22025;BME280;11176;51.448;6.650;2023-05-31T03:50:07;36467.22;;;-141.29;88.49
22025;BME280;11176;51.448;6.650;2023-05-31T03:52:34;36483.16;;;-141.29;88.67
22025;BME280;11176;51.448;6.650;2023-05-31T03:55:04;36507.09;;;-141.29;88.61
22025;BME280;11176;51.448;6.650;2023-05-31T03:57:31;36449.28;;;-141.29;88.76
22025;BME280;11176;51.448;6.650;2023-05-31T03:59:57;36485.16;;;-141.29;89.05
22025;BME280;11176;51.448;6.650;2023-05-31T04:02:26;36483.16;;;-141.29;88.97
22025;BME280;11176;51.448;6.650;2023-05-31T04:04:53;36485.16;;;-141.29;89.37
22025;BME280;11176;51.448;6.650;2023-05-31T04:07:19;36485.16;;;-141.29;89.40
22025;BME280;11176;51.448;6.650;2023-05-31T04:09:46;36491.13;;;-141.29;89.76
22025;BME280;11176;51.448;6.650;2023-05-31T04:12:13;36477.19;;;-141.29;89.80
22025;BME280;11176;51.448;6.650;2023-05-31T04:14:39;36511.06;;;-141.29;89.64
22025;BME280;11176;51.448;6.650;2023-05-31T04:17:07;36507.09;;;-141.29;89.34
22025;BME280;11176;51.448;6.650;2023-05-31T04:19:34;36529.00;;;-141.29;89.63
22025;BME280;11176;51.448;6.650;2023-05-31T04:22:02;36529.00;;;-141.29;89.53
22025;BME280;11176;51.448;6.650;2023-05-31T04:24:30;36515.06;;;-141.29;89.84
22025;BME280;11176;51.448;6.650;2023-05-31T04:26:57;36515.06;;;-141.29;89.58
22025;BME280;11176;51.448;6.650;2023-05-31T04:29:24;36515.06;;;-141.29;89.23
22025;BME280;11176;51.448;6.650;2023-05-31T04:31:52;36507.09;;;-141.29;89.34
22025;BME280;11176;51.448;6.650;2023-05-31T04:34:21;36509.06;;;-141.29;89.40
22025;BME280;11176;51.448;6.650;2023-05-31T04:36:50;36536.97;;;-141.29;89.33
22025;BME280;11176;51.448;6.650;2023-05-31T04:39:20;36544.94;;;-141.29;89.50
22025;BME280;11176;51.448;6.650;2023-05-31T04:41:49;36503.09;;;-141.29;89.65
22025;BME280;11176;51.448;6.650;2023-05-31T04:44:16;36533.00;;;-141.29;89.36
22025;BME280;11176;51.448;6.650;2023-05-31T04:46:46;36564.88;;;-141.29;89.61
22025;BME280;11176;51.448;6.650;2023-05-31T04:49:13;36540.97;;;-141.29;89.53
22025;BME280;11176;51.448;6.650;2023-05-31T04:51:39;36564.88;;;-141.29;89.54
22025;BME280;11176;51.448;6.650;2023-05-31T04:54:07;36564.88;;;-141.29;89.47
22025;BME280;11176;51.448;6.650;2023-05-31T04:56:33;36564.88;;;-141.29;89.24
22025;BME280;11176;51.448;6.650;2023-05-31T04:59:00;36552.94;;;-141.29;89.11
22025;BME280;11176;51.448;6.650;2023-05-31T05:01:28;36568.88;;;-141.29;89.29
22025;BME280;11176;51.448;6.650;2023-05-31T05:04:01;36554.91;;;-141.29;89.25
22025;BME280;11176;51.448;6.650;2023-05-31T05:06:29;36556.91;;;-141.29;89.27
22025;BME280;11176;51.448;6.650;2023-05-31T05:08:56;36558.91;;;-141.29;89.30
22025;BME280;11176;51.448;6.650;2023-05-31T05:11:24;36592.78;;;-141.29;88.90
22025;BME280;11176;51.448;6.650;2023-05-31T05:13:51;36560.91;;;-141.29;88.85
22025;BME280;11176;51.448;6.650;2023-05-31T05:16:22;36576.84;;;-141.29;88.73
22025;BME280;11176;51.448;6.650;2023-05-31T05:18:49;36600.75;;;-141.29;89.76
22025;BME280;11176;51.448;6.650;2023-05-31T05:21:15;36596.78;;;-141.29;89.87
22025;BME280;11176;51.448;6.650;2023-05-31T05:23:43;36592.78;;;-141.29;89.87
22025;BME280;11176;51.448;6.650;2023-05-31T05:26:09;36612.72;;;-141.29;89.68
22025;BME280;11176;51.448;6.650;2023-05-31T05:28:36;36618.69;;;-141.29;89.62
22025;BME280;11176;51.448;6.650;2023-05-31T05:31:03;36650.59;;;-141.29;89.38
22025;BME280;11176;51.448;6.650;2023-05-31T05:33:36;36620.69;;;-141.29;89.65
22025;BME280;11176;51.448;6.650;2023-05-31T05:36:04;36612.72;;;-141.29;89.16
22025;BME280;11176;51.448;6.650;2023-05-31T05:38:32;36640.63;;;-141.29;88.87
22025;BME280;11176;51.448;6.650;2023-05-31T05:40:59;36606.75;;;-141.29;88.62
22025;BME280;11176;51.448;6.650;2023-05-31T05:43:26;36620.69;;;-141.29;88.23
22025;BME280;11176;51.448;6.650;2023-05-31T05:46:03;36644.63;;;-141.29;88.14
22025;BME280;11176;51.448;6.650;2023-05-31T05:48:31;36640.63;;;-141.29;87.89
22025;BME280;11176;51.448;6.650;2023-05-31T05:50:58;36614.72;;;-141.29;87.65
22025;BME280;11176;51.448;6.650;2023-05-31T05:53:27;36640.63;;;-141.29;87.47
22025;BME280;11176;51.448;6.650;2023-05-31T05:55:54;36632.66;;;-141.29;87.26
22025;BME280;11176;51.448;6.650;2023-05-31T05:58:25;36650.59;;;-141.29;87.05
22025;BME280;11176;51.448;6.650;2023-05-31T06:01:14;36656.56;;;-141.29;86.58
22025;BME280;11176;51.448;6.650;2023-05-31T06:03:53;36650.59;;;-141.29;86.41
22025;BME280;11176;51.448;6.650;2023-05-31T06:06:21;36624.69;;;-141.29;86.17
22025;BME280;11176;51.448;6.650;2023-05-31T06:08:48;36652.59;;;-141.29;85.81
22025;BME280;11176;51.448;6.650;2023-05-31T06:11:15;36656.56;;;-141.29;85.53
22025;BME280;11176;51.448;6.650;2023-05-31T06:13:43;36656.56;;;-141.29;85.51
22025;BME280;11176;51.448;6.650;2023-05-31T06:16:10;36628.66;;;-141.29;85.24
22025;BME280;11176;51.448;6.650;2023-05-31T06:18:37;36656.56;;;-141.29;85.16
22025;BME280;11176;51.448;6.650;2023-05-31T06:21:04;36666.53;;;-141.29;85.08
22025;BME280;11176;51.448;6.650;2023-05-31T06:23:31;36678.50;;;-141.29;84.93
22025;BME280;11176;51.448;6.650;2023-05-31T06:25:57;36644.63;;;-141.29;84.75
22025;BME280;11176;51.448;6.650;2023-05-31T06:28:24;36670.53;;;-141.29;84.26
22025;BME280;11176;51.448;6.650;2023-05-31T06:30:53;36644.63;;;-141.29;83.85
22025;BME280;11176;51.448;6.650;2023-05-31T06:33:20;36692.44;;;-141.29;83.92
22025;BME280;11176;51.448;6.650;2023-05-31T06:35:47;36660.56;;;-141.29;83.74
22025;BME280;11176;51.448;6.650;2023-05-31T06:38:14;36686.47;;;-141.29;83.54
22025;BME280;11176;51.448;6.650;2023-05-31T06:40:44;36670.53;;;-141.29;83.48
22025;BME280;11176;51.448;6.650;2023-05-31T06:43:11;36704.41;;;-141.29;83.34
22025;BME280;11176;51.448;6.650;2023-05-31T06:46:10;36672.50;;;-141.29;82.60
22025;BME280;11176;51.448;6.650;2023-05-31T06:48:57;36698.44;;;-141.29;82.26
22025;BME280;11176;51.448;6.650;2023-05-31T06:51:38;36692.44;;;-141.29;82.28
22025;BME280;11176;51.448;6.650;2023-05-31T06:54:26;36686.47;;;-141.29;81.93
22025;BME280;11176;51.448;6.650;2023-05-31T06:56:54;36674.50;;;-141.29;81.77
22025;BME280;11176;51.448;6.650;2023-05-31T06:59:21;36692.44;;;-141.29;81.22
22025;BME280;11176;51.448;6.650;2023-05-31T07:01:49;36714.38;;;-141.29;80.57
22025;BME280;11176;51.448;6.650;2023-05-31T07:04:18;36730.31;;;-141.29;80.66
22025;BME280;11176;51.448;6.650;2023-05-31T07:06:46;36720.34;;;-141.29;80.52
22025;BME280;11176;51.448;6.650;2023-05-31T07:09:13;36726.34;;;-141.29;79.97
22025;BME280;11176;51.448;6.650;2023-05-31T07:11:57;36740.28;;;-141.29;79.82
22025;BME280;11176;51.448;6.650;2023-05-31T07:14:28;36716.38;;;-141.29;79.49
22025;BME280;11176;51.448;6.650;2023-05-31T07:16:55;36748.25;;;-141.29;79.11
22025;BME280;11176;51.448;6.650;2023-05-31T07:19:21;36732.31;;;-141.29;79.53
22025;BME280;11176;51.448;6.650;2023-05-31T07:21:48;36704.41;;;-141.29;79.22
22025;BME280;11176;51.448;6.650;2023-05-31T07:24:14;36728.31;;;-141.29;78.55
22025;BME280;11176;51.448;6.650;2023-05-31T07:26:41;36758.22;;;-141.29;77.99
22025;BME280;11176;51.448;6.650;2023-05-31T07:29:07;36730.31;;;-141.29;78.01
22025;BME280;11176;51.448;6.650;2023-05-31T07:31:34;36766.19;;;-141.29;77.71
22025;BME280;11176;51.448;6.650;2023-05-31T07:34:00;36728.31;;;-141.29;77.20
22025;BME280;11176;51.448;6.650;2023-05-31T07:36:27;36754.25;;;-141.29;76.81
22025;BME280;11176;51.448;6.650;2023-05-31T07:38:54;36734.31;;;-141.29;76.36
22025;BME280;11176;51.448;6.650;2023-05-31T07:41:21;36760.22;;;-141.29;76.42
22025;BME280;11176;51.448;6.650;2023-05-31T07:43:47;36750.25;;;-141.29;75.60
22025;BME280;11176;51.448;6.650;2023-05-31T07:46:14;36730.31;;;-141.29;75.33
22025;BME280;11176;51.448;6.650;2023-05-31T07:48:40;36726.34;;;-141.29;75.29
22025;BME280;11176;51.448;6.650;2023-05-31T07:51:07;36736.31;;;-141.29;75.13
22025;BME280;11176;51.448;6.650;2023-05-31T07:53:33;36754.25;;;-141.29;74.68
22025;BME280;11176;51.448;6.650;2023-05-31T07:56:01;36740.28;;;-141.29;73.96
22025;BME280;11176;51.448;6.650;2023-05-31T07:58:27;36740.28;;;-141.29;73.25
22025;BME280;11176;51.448;6.650;2023-05-31T08:00:54;36744.28;;;-141.29;73.27
22025;BME280;11176;51.448;6.650;2023-05-31T08:03:21;36758.22;;;-141.29;73.18
22025;BME280;11176;51.448;6.650;2023-05-31T08:05:48;36764.22;;;-141.29;72.34
22025;BME280;11176;51.448;6.650;2023-05-31T08:08:16;36758.22;;;-141.29;72.19
22025;BME280;11176;51.448;6.650;2023-05-31T08:10:42;36752.25;;;-141.29;71.24
22025;BME280;11176;51.448;6.650;2023-05-31T08:13:10;36772.19;;;-141.29;71.28
22025;BME280;11176;51.448;6.650;2023-05-31T08:15:37;36774.16;;;-141.29;71.06
22025;BME280;11176;51.448;6.650;2023-05-31T08:18:03;36768.19;;;-141.29;69.79
22025;BME280;11176;51.448;6.650;2023-05-31T08:20:30;36780.16;;;-141.29;69.57
22025;BME280;11176;51.448;6.650;2023-05-31T08:22:58;36806.06;;;-141.29;70.37
22025;BME280;11176;51.448;6.650;2023-05-31T08:25:24;36780.16;;;-141.29;69.61
22025;BME280;11176;51.448;6.650;2023-05-31T08:27:51;36792.13;;;-141.29;69.68
22025;BME280;11176;51.448;6.650;2023-05-31T08:30:18;36804.06;;;-141.29;70.45
22025;BME280;11176;51.448;6.650;2023-05-31T08:32:44;36792.13;;;-141.29;70.93
22025;BME280;11176;51.448;6.650;2023-05-31T08:35:11;36835.97;;;-141.29;70.54
22025;BME280;11176;51.448;6.650;2023-05-31T08:37:38;36839.94;;;-141.29;69.81
22025;BME280;11176;51.448;6.650;2023-05-31T08:40:06;36792.13;;;-141.29;68.60
22025;BME280;11176;51.448;6.650;2023-05-31T08:42:59;36760.22;;;-141.29;66.98
22025;BME280;11176;51.448;6.650;2023-05-31T08:45:27;36788.13;;;-141.29;66.46
22025;BME280;11176;51.448;6.650;2023-05-31T08:48:10;36808.06;;;-141.29;67.21
22025;BME280;11176;51.448;6.650;2023-05-31T08:50:38;36828.00;;;-141.29;69.54
22025;BME280;11176;51.448;6.650;2023-05-31T08:53:05;36802.06;;;-141.29;67.67
22025;BME280;11176;51.448;6.650;2023-05-31T08:55:32;36824.00;;;-141.29;67.34
22025;BME280;11176;51.448;6.650;2023-05-31T08:57:59;36843.94;;;-141.29;66.86
22025;BME280;11176;51.448;6.650;2023-05-31T09:00:27;36824.00;;;-141.29;66.62
22025;BME280;11176;51.448;6.650;2023-05-31T09:02:53;36818.03;;;-141.29;66.36
22025;BME280;11176;51.448;6.650;2023-05-31T09:05:20;36800.09;;;-141.29;66.25
22025;BME280;11176;51.448;6.650;2023-05-31T09:07:47;36810.06;;;-141.29;65.33
22025;BME280;11176;51.448;6.650;2023-05-31T09:10:16;36794.09;;;-141.29;65.16
22025;BME280;11176;51.448;6.650;2023-05-31T09:12:43;36800.09;;;-141.29;63.62
22025;BME280;11176;51.448;6.650;2023-05-31T09:15:12;36772.19;;;-141.29;62.47
22025;BME280;11176;51.448;6.650;2023-05-31T09:17:45;36788.13;;;-141.29;62.00
22025;BME280;11176;51.448;6.650;2023-05-31T09:20:12;36772.19;;;-141.29;63.13
22025;BME280;11176;51.448;6.650;2023-05-31T09:22:39;36820.03;;;-141.29;62.89
22025;BME280;11176;51.448;6.650;2023-05-31T09:25:05;36786.13;;;-141.29;61.45
22025;BME280;11176;51.448;6.650;2023-05-31T09:27:38;36796.09;;;-141.29;61.53
22025;BME280;11176;51.448;6.650;2023-05-31T09:30:07;36784.13;;;-141.29;60.63
22025;BME280;11176;51.448;6.650;2023-05-31T09:32:35;36762.22;;;-141.29;58.83
22025;BME280;11176;51.448;6.650;2023-05-31T09:37:43;36760.22;;;-141.29;58.39
22025;BME280;11176;51.448;6.650;2023-05-31T09:40:14;36768.19;;;-141.29;57.81
22025;BME280;11176;51.448;6.650;2023-05-31T09:42:48;36758.22;;;-141.29;55.15
22025;BME280;11176;51.448;6.650;2023-05-31T09:45:16;36738.28;;;-141.29;54.49
22025;BME280;11176;51.448;6.650;2023-05-31T09:47:43;36728.31;;;-141.29;53.76
22025;BME280;11176;51.448;6.650;2023-05-31T09:50:11;36724.34;;;-141.29;51.33
22025;BME280;11176;51.448;6.650;2023-05-31T09:52:37;36676.50;;;-141.29;49.51
22025;BME280;11176;51.448;6.650;2023-05-31T09:55:06;36634.66;;;-141.29;49.29
22025;BME280;11176;51.448;6.650;2023-05-31T09:57:34;36710.38;;;-141.29;49.69
22025;BME280;11176;51.448;6.650;2023-05-31T10:00:08;36732.31;;;-141.29;51.02
22025;BME280;11176;51.448;6.650;2023-05-31T10:02:46;36714.38;;;-141.29;50.25
22025;BME280;11176;51.448;6.650;2023-05-31T10:05:14;36716.38;;;-141.29;49.94
22025;BME280;11176;51.448;6.650;2023-05-31T10:07:43;36648.59;;;-141.29;47.08
22025;BME280;11176;51.448;6.650;2023-05-31T10:10:10;36656.56;;;-141.29;46.52
22025;BME280;11176;51.448;6.650;2023-05-31T10:15:09;36682.47;;;-141.29;46.23
22025;BME280;11176;51.448;6.650;2023-05-31T10:17:42;36670.53;;;-141.29;46.41
22025;BME280;11176;51.448;6.650;2023-05-31T10:20:11;36670.53;;;-141.29;45.48
22025;BME280;11176;51.448;6.650;2023-05-31T10:22:39;36656.56;;;-141.29;44.02
22025;BME280;11176;51.448;6.650;2023-05-31T10:25:11;36672.50;;;-141.29;46.16
22025;BME280;11176;51.448;6.650;2023-05-31T10:27:44;36748.25;;;-141.29;48.45
22025;BME280;11176;51.448;6.650;2023-05-31T10:30:12;36676.50;;;-141.29;47.05
22025;BME280;11176;51.448;6.650;2023-05-31T10:32:42;36736.31;;;-141.29;46.95
22025;BME280;11176;51.448;6.650;2023-05-31T10:35:10;36648.59;;;-141.29;44.24
22025;BME280;11176;51.448;6.650;2023-05-31T10:37:39;36714.38;;;-141.29;47.43
22025;BME280;11176;51.448;6.650;2023-05-31T10:40:30;36716.38;;;-141.29;46.90
22025;BME280;11176;51.448;6.650;2023-05-31T10:43:35;36654.56;;;-141.29;44.07
22025;BME280;11176;51.448;6.650;2023-05-31T10:46:12;36762.22;;;-141.29;47.99
22025;BME280;11176;51.448;6.650;2023-05-31T10:48:52;36686.47;;;-141.29;43.01
22025;BME280;11176;51.448;6.650;2023-05-31T10:51:43;36632.66;;;-141.29;41.84
22025;BME280;11176;51.448;6.650;2023-05-31T10:54:18;36670.53;;;-141.29;42.73
22025;BME280;11176;51.448;6.650;2023-05-31T10:56:54;36636.63;;;-141.29;40.85
22025;BME280;11176;51.448;6.650;2023-05-31T10:59:28;36740.28;;;-141.29;45.11
22025;BME280;11176;51.448;6.650;2023-05-31T11:01:56;36728.31;;;-141.29;44.65
22025;BME280;11176;51.448;6.650;2023-05-31T11:04:25;36692.44;;;-141.29;42.74
22025;BME280;11176;51.448;6.650;2023-05-31T11:06:52;36752.25;;;-141.29;45.63
22025;BME280;11176;51.448;6.650;2023-05-31T11:09:19;36688.47;;;-141.29;42.21
22025;BME280;11176;51.448;6.650;2023-05-31T11:11:48;36814.03;;;-141.29;46.58
22025;BME280;11176;51.448;6.650;2023-05-31T11:19:16;36818.03;;;-141.29;45.60
22025;BME280;11176;51.448;6.650;2023-05-31T11:24:26;36867.84;;;-141.29;46.34
22025;BME280;11176;51.448;6.650;2023-05-31T11:26:58;36887.78;;;-141.29;44.86
22025;BME280;11176;51.448;6.650;2023-05-31T11:32:11;36843.94;;;-141.29;39.07
22025;BME280;11176;51.448;6.650;2023-05-31T11:34:52;36951.56;;;-141.29;40.91
22025;BME280;11176;51.448;6.650;2023-05-31T11:37:21;36919.69;;;-141.29;39.08
22025;BME280;11176;51.448;6.650;2023-05-31T11:39:49;36903.75;;;-141.29;37.43
22025;BME280;11176;51.448;6.650;2023-05-31T11:42:16;36893.78;;;-141.29;35.79
22025;BME280;11176;51.448;6.650;2023-05-31T11:44:44;36907.72;;;-141.29;35.06
22025;BME280;11176;51.448;6.650;2023-05-31T11:47:17;36927.66;;;-141.29;35.30
22025;BME280;11176;51.448;6.650;2023-05-31T11:49:44;36937.63;;;-141.29;34.72
22025;BME280;11176;51.448;6.650;2023-05-31T11:52:15;36917.69;;;-141.29;33.36
22025;BME280;11176;51.448;6.650;2023-05-31T11:54:43;36963.53;;;-141.29;33.85
22025;BME280;11176;51.448;6.650;2023-05-31T11:57:12;36977.50;;;-141.29;33.00
22025;BME280;11176;51.448;6.650;2023-05-31T11:59:39;36959.56;;;-141.29;32.97
22025;BME280;11176;51.448;6.650;2023-05-31T12:02:07;36903.75;;;-141.29;31.48
22025;BME280;11176;51.448;6.650;2023-05-31T12:04:38;36833.97;;;-141.29;30.39
22025;BME280;11176;51.448;6.650;2023-05-31T12:07:10;36923.66;;;-141.29;30.75
22025;BME280;11176;51.448;6.650;2023-05-31T12:09:37;36945.59;;;-141.29;30.73
22025;BME280;11176;51.448;6.650;2023-05-31T12:12:04;36853.91;;;-141.29;29.19
22025;BME280;11176;51.448;6.650;2023-05-31T12:14:34;36879.81;;;-141.29;29.89
22025;BME280;11176;51.448;6.650;2023-05-31T12:17:02;36907.72;;;-141.29;29.80
22025;BME280;11176;51.448;6.650;2023-05-31T12:19:32;36887.78;;;-141.29;29.22
22025;BME280;11176;51.448;6.650;2023-05-31T12:22:01;36764.22;;;-141.29;27.86
22025;BME280;11176;51.448;6.650;2023-05-31T12:24:28;36824.00;;;-141.29;28.06
22025;BME280;11176;51.448;6.650;2023-05-31T12:26:55;36853.91;;;-141.29;28.84
22025;BME280;11176;51.448;6.650;2023-05-31T12:29:29;36869.84;;;-141.29;28.60
22025;BME280;11176;51.448;6.650;2023-05-31T12:32:00;36887.78;;;-141.29;28.71
22025;BME280;11176;51.448;6.650;2023-05-31T12:34:28;36812.03;;;-141.29;28.25
22025;BME280;11176;51.448;6.650;2023-05-31T12:36:56;36831.97;;;-141.29;28.22
22025;BME280;11176;51.448;6.650;2023-05-31T12:39:24;36851.91;;;-141.29;28.11
22025;BME280;11176;51.448;6.650;2023-05-31T12:41:51;36822.00;;;-141.29;28.23
22025;BME280;11176;51.448;6.650;2023-05-31T12:44:20;36835.97;;;-141.29;28.05
22025;BME280;11176;51.448;6.650;2023-05-31T12:46:48;36818.03;;;-141.29;27.92
22025;BME280;11176;51.448;6.650;2023-05-31T12:49:25;36800.09;;;-141.29;27.80
22025;BME280;11176;51.448;6.650;2023-05-31T12:52:07;36790.13;;;-141.29;27.98
22025;BME280;11176;51.448;6.650;2023-05-31T12:54:36;36792.13;;;-141.29;27.90
22025;BME280;11176;51.448;6.650;2023-05-31T12:57:08;36828.00;;;-141.29;28.02
22025;BME280;11176;51.448;6.650;2023-05-31T12:59:36;36804.06;;;-141.29;27.82
22025;BME280;11176;51.448;6.650;2023-05-31T13:02:04;36820.03;;;-141.29;27.83
22025;BME280;11176;51.448;6.650;2023-05-31T13:04:32;36716.38;;;-141.29;26.82
22025;BME280;11176;51.448;6.650;2023-05-31T13:07:01;36748.25;;;-141.29;26.99
22025;BME280;11176;51.448;6.650;2023-05-31T13:09:28;36692.44;;;-141.29;26.69
22025;BME280;11176;51.448;6.650;2023-05-31T13:11:54;36728.31;;;-141.29;26.98
22025;BME280;11176;51.448;6.650;2023-05-31T13:14:21;36796.09;;;-141.29;27.28
22025;BME280;11176;51.448;6.650;2023-05-31T13:16:52;36808.06;;;-141.29;27.23
22025;BME280;11176;51.448;6.650;2023-05-31T13:19:20;36736.31;;;-141.29;27.12